sensor_id;sensor_type;location;lat;lon;timestamp;pressure;altitude;pressure_sealevel;temperature;humidity
13015;BME280;6573;57.696;11.950;2022-08-24T00:01:17;102133.19;;;18.86;100.00
13015;BME280;6573;57.696;11.950;2022-08-24T00:03:46;102135.09;;;18.78;100.00
13015;BME280;6573;57.696;11.950;2022-08-24T00:06:22;102132.50;;;18.75;100.00
13015;BME280;6573;57.696;11.950;2022-08-24T00:08:52;102132.50;;;18.73;100.00
13015;BME280;6573;57.696;11.950;2022-08-24T00:11:22;102136.09;;;18.71;100.00
13015;BME280;6573;57.696;11.950;2022-08-24T00:13:50;102137.88;;;18.72;100.00
13015;BME280;6573;57.696;11.950;2022-08-24T00:16:19;102139.72;;;18.67;100.00
13015;BME280;6573;57.696;11.950;2022-08-24T00:18:48;102147.75;;;18.64;100.00
13015;BME280;6573;57.696;11.950;2022-08-24T00:21:16;102146.84;;;18.68;100.00
13015;BME280;6573;57.696;11.950;2022-08-24T00:23:45;102153.06;;;18.67;100.00
13015;BME280;6573;57.696;11.950;2022-08-24T00:26:15;102144.28;;;18.59;100.00
13015;BME280;6573;57.696;11.950;2022-08-24T00:28:55;102133.72;;;18.53;100.00
13015;BME280;6573;57.696;11.950;2022-08-24T00:31:24;102139.06;;;18.53;100.00
13015;BME280;6573;57.696;11.950;2022-08-24T00:33:52;102135.50;;;18.51;100.00
13015;BME280;6573;57.696;11.950;2022-08-24T00:36:20;102133.78;;;18.50;100.00
13015;BME280;6573;57.696;11.950;2022-08-24T00:38:48;102135.47;;;18.54;100.00
13015;BME280;6573;57.696;11.950;2022-08-24T00:41:17;102117.84;;;18.41;100.00
13015;BME280;6573;57.696;11.950;2022-08-24T00:43:57;102139.19;;;18.41;100.00
13015;BME280;6573;57.696;11.950;2022-08-24T00:46:28;102134.72;;;18.41;100.00
13015;BME280;6573;57.696;11.950;2022-08-24T00:49:03;102148.94;;;18.42;100.00
13015;BME280;6573;57.696;11.950;2022-08-24T00:51:35;102138.38;;;18.36;100.00
13015;BME280;6573;57.696;11.950;2022-08-24T00:54:11;102143.72;;;18.34;100.00
13015;BME280;6573;57.696;11.950;2022-08-24T00:56:44;102132.13;;;18.37;100.00
13015;BME280;6573;57.696;11.950;2022-08-24T00:59:19;102132.31;;;18.25;100.00
13015;BME280;6573;57.696;11.950;2022-08-24T01:01:49;102132.34;;;18.22;100.00
13015;BME280;6573;57.696;11.950;2022-08-24T01:04:21;102128.81;;;18.20;100.00
13015;BME280;6573;57.696;11.950;2022-08-24T01:06:54;102135.94;;;18.21;100.00
13015;BME280;6573;57.696;11.950;2022-08-24T01:09:22;102132.34;;;18.22;100.00
13015;BME280;6573;57.696;11.950;2022-08-24T01:11:51;102132.44;;;18.16;100.00
13015;BME280;6573;57.696;11.950;2022-08-24T01:14:22;102132.47;;;18.13;100.00
13015;BME280;6573;57.696;11.950;2022-08-24T01:16:51;102127.16;;;18.13;100.00
13015;BME280;6573;57.696;11.950;2022-08-24T01:19:54;102133.44;;;18.07;100.00
13015;BME280;6573;57.696;11.950;2022-08-24T01:22:39;102134.38;;;18.01;100.00
13015;BME280;6573;57.696;11.950;2022-08-24T01:25:13;102137.97;;;18.00;100.00
13015;BME280;6573;57.696;11.950;2022-08-24T01:27:41;102146.81;;;18.02;100.00
13015;BME280;6573;57.696;11.950;2022-08-24T01:30:15;102145.94;;;18.00;100.00
13015;BME280;6573;57.696;11.950;2022-08-24T01:32:56;102130.94;;;17.93;100.00
13015;BME280;6573;57.696;11.950;2022-08-24T01:35:26;102148.63;;;18.00;100.00
13015;BME280;6573;57.696;11.950;2022-08-24T01:37:57;102147.75;;;17.98;100.00
13015;BME280;6573;57.696;11.950;2022-08-24T01:40:33;102152.25;;;17.93;100.00
13015;BME280;6573;57.696;11.950;2022-08-24T01:43:04;102149.47;;;18.02;100.00
13015;BME280;6573;57.696;11.950;2022-08-24T01:45:33;102156.50;;;18.08;100.00
13015;BME280;6573;57.696;11.950;2022-08-24T01:48:02;102143.38;;;17.91;100.00
13015;BME280;6573;57.696;11.950;2022-08-24T01:50:30;102156.69;;;17.91;100.00
13015;BME280;6573;57.696;11.950;2022-08-24T01:53:02;102160.25;;;17.92;100.00
13015;BME280;6573;57.696;11.950;2022-08-24T01:55:33;102156.72;;;17.90;100.00
13015;BME280;6573;57.696;11.950;2022-08-24T01:58:02;102152.28;;;17.90;100.00
13015;BME280;6573;57.696;11.950;2022-08-24T02:00:31;102146.03;;;17.93;100.00
13015;BME280;6573;57.696;11.950;2022-08-24T02:02:59;102152.25;;;17.93;100.00
13015;BME280;6573;57.696;11.950;2022-08-24T02:05:28;102146.94;;;17.93;100.00
13015;BME280;6573;57.696;11.950;2022-08-24T02:07:56;102146.88;;;17.96;100.00
13015;BME280;6573;57.696;11.950;2022-08-24T02:10:25;102152.13;;;18.02;100.00
13015;BME280;6573;57.696;11.950;2022-08-24T02:12:56;102152.25;;;17.93;100.00
13015;BME280;6573;57.696;11.950;2022-08-24T02:15:27;102143.34;;;17.94;100.00
13015;BME280;6573;57.696;11.950;2022-08-24T02:17:57;102144.03;;;18.08;100.00
13015;BME280;6573;57.696;11.950;2022-08-24T02:20:26;102140.63;;;18.00;100.00
13015;BME280;6573;57.696;11.950;2022-08-24T02:22:55;102143.28;;;18.00;100.00
13015;BME280;6573;57.696;11.950;2022-08-24T02:25:24;102147.72;;;18.00;100.00
13015;BME280;6573;57.696;11.950;2022-08-24T02:27:57;102141.53;;;17.96;100.00
13015;BME280;6573;57.696;11.950;2022-08-24T02:30:25;102148.59;;;18.03;100.00
13015;BME280;6573;57.696;11.950;2022-08-24T02:32:53;102149.44;;;18.04;100.00
13015;BME280;6573;57.696;11.950;2022-08-24T02:35:22;102146.84;;;17.99;100.00
13015;BME280;6573;57.696;11.950;2022-08-24T02:37:50;102145.94;;;18.00;100.00
13015;BME280;6573;57.696;11.950;2022-08-24T02:40:19;102157.47;;;18.02;100.00
13015;BME280;6573;57.696;11.950;2022-08-24T02:42:47;102159.16;;;18.06;100.00
13015;BME280;6573;57.696;11.950;2022-08-24T02:45:17;102160.03;;;18.10;100.00
13015;BME280;6573;57.696;11.950;2022-08-24T02:47:45;102155.59;;;18.10;100.00
13015;BME280;6573;57.696;11.950;2022-08-24T02:50:15;102156.53;;;18.05;100.00
13015;BME280;6573;57.696;11.950;2022-08-24T02:52:43;102164.56;;;18.03;100.00
13015;BME280;6573;57.696;11.950;2022-08-24T02:55:14;102164.56;;;18.03;100.00
13015;BME280;6573;57.696;11.950;2022-08-24T02:57:46;102161.00;;;18.01;100.00
13015;BME280;6573;57.696;11.950;2022-08-24T03:00:18;102166.31;;;18.04;100.00
13015;BME280;6573;57.696;11.950;2022-08-24T03:02:47;102169.88;;;18.03;100.00
13015;BME280;6573;57.696;11.950;2022-08-24T03:05:15;102176.13;;;18.01;100.00
13015;BME280;6573;57.696;11.950;2022-08-24T03:07:45;102175.25;;;18.00;100.00
13015;BME280;6573;57.696;11.950;2022-08-24T03:10:14;102177.00;;;18.01;100.00
13015;BME280;6573;57.696;11.950;2022-08-24T03:12:42;102183.22;;;18.00;100.00
13015;BME280;6573;57.696;11.950;2022-08-24T03:15:11;102177.91;;;17.99;100.00
13015;BME280;6573;57.696;11.950;2022-08-24T03:17:41;102187.63;;;18.01;100.00
13015;BME280;6573;57.696;11.950;2022-08-24T03:20:14;102184.06;;;18.05;100.00
13015;BME280;6573;57.696;11.950;2022-08-24T03:22:43;102182.22;;;18.10;100.00
13015;BME280;6573;57.696;11.950;2022-08-24T03:25:13;102186.59;;;18.15;100.00
13015;BME280;6573;57.696;11.950;2022-08-24T03:27:41;102177.88;;;18.02;100.00
13015;BME280;6573;57.696;11.950;2022-08-24T03:30:12;102182.28;;;18.04;100.00
13015;BME280;6573;57.696;11.950;2022-08-24T03:32:43;102189.38;;;18.05;100.00
13015;BME280;6573;57.696;11.950;2022-08-24T03:35:12;102182.28;;;18.04;100.00
13015;BME280;6573;57.696;11.950;2022-08-24T03:37:41;102187.72;;;17.95;100.00
13015;BME280;6573;57.696;11.950;2022-08-24T03:40:10;102186.06;;;17.85;100.00
13015;BME280;6573;57.696;11.950;2022-08-24T03:42:50;102192.31;;;17.81;100.00
13015;BME280;6573;57.696;11.950;2022-08-24T03:45:19;102185.19;;;17.83;100.00
13015;BME280;6573;57.696;11.950;2022-08-24T03:47:50;102180.81;;;17.76;100.00
13015;BME280;6573;57.696;11.950;2022-08-24T03:50:19;102188.00;;;17.71;100.00
13015;BME280;6573;57.696;11.950;2022-08-24T03:52:48;102179.09;;;17.72;100.00
13015;BME280;6573;57.696;11.950;2022-08-24T03:55:17;102178.25;;;17.69;100.00
13015;BME280;6573;57.696;11.950;2022-08-24T03:57:45;102184.50;;;17.66;100.00
13015;BME280;6573;57.696;11.950;2022-08-24T04:00:14;102186.22;;;17.70;100.00
13015;BME280;6573;57.696;11.950;2022-08-24T04:02:42;102174.75;;;17.65;100.00
13015;BME280;6573;57.696;11.950;2022-08-24T04:05:12;102184.53;;;17.63;100.00
13015;BME280;6573;57.696;11.950;2022-08-24T04:07:41;102185.41;;;17.62;100.00
13015;BME280;6573;57.696;11.950;2022-08-24T04:10:09;102192.50;;;17.66;100.00
13015;BME280;6573;57.696;11.950;2022-08-24T04:12:38;102193.34;;;17.68;100.00
13015;BME280;6573;57.696;11.950;2022-08-24T04:15:08;102195.97;;;17.70;100.00
13015;BME280;6573;57.696;11.950;2022-08-24T04:17:36;102196.91;;;17.67;100.00
13015;BME280;6573;57.696;11.950;2022-08-24T04:20:05;102204.88;;;17.69;100.00
13015;BME280;6573;57.696;11.950;2022-08-24T04:22:36;102202.22;;;17.67;100.00
13015;BME280;6573;57.696;11.950;2022-08-24T04:25:04;102206.72;;;17.64;100.00
13015;BME280;6573;57.696;11.950;2022-08-24T04:27:35;102207.56;;;17.64;100.00
13015;BME280;6573;57.696;11.950;2022-08-24T04:30:04;102193.50;;;17.53;100.00
13015;BME280;6573;57.696;11.950;2022-08-24T04:32:33;102212.94;;;17.61;100.00
13015;BME280;6573;57.696;11.950;2022-08-24T04:35:01;102208.50;;;17.60;100.00
13015;BME280;6573;57.696;11.950;2022-08-24T04:37:29;102214.72;;;17.59;100.00
13015;BME280;6573;57.696;11.950;2022-08-24T04:39:59;102223.50;;;17.67;100.00
13015;BME280;6573;57.696;11.950;2022-08-24T04:42:28;102213.81;;;17.60;100.00
13015;BME280;6573;57.696;11.950;2022-08-24T04:44:59;102214.63;;;17.68;100.00
13015;BME280;6573;57.696;11.950;2022-08-24T04:47:27;102220.00;;;17.62;100.00
13015;BME280;6573;57.696;11.950;2022-08-24T04:49:55;102211.94;;;17.70;100.00
13015;BME280;6573;57.696;11.950;2022-08-24T04:52:23;102212.94;;;17.61;100.00
13015;BME280;6573;57.696;11.950;2022-08-24T04:54:51;102206.72;;;17.59;100.00
13015;BME280;6573;57.696;11.950;2022-08-24T04:57:21;102207.66;;;17.58;100.00
13015;BME280;6573;57.696;11.950;2022-08-24T04:59:49;102207.63;;;17.61;100.00
13015;BME280;6573;57.696;11.950;2022-08-24T05:02:17;102187.31;;;17.45;100.00
13015;BME280;6573;57.696;11.950;2022-08-24T05:04:46;102209.38;;;17.62;100.00
13015;BME280;6573;57.696;11.950;2022-08-24T05:07:15;102209.34;;;17.65;100.00
13015;BME280;6573;57.696;11.950;2022-08-24T05:09:44;102211.13;;;17.63;100.00
13015;BME280;6573;57.696;11.950;2022-08-24T05:12:12;102218.16;;;17.70;100.00
13015;BME280;6573;57.696;11.950;2022-08-24T05:14:42;102209.31;;;17.68;100.00
13015;BME280;6573;57.696;11.950;2022-08-24T05:17:10;102213.69;;;17.72;100.00
13015;BME280;6573;57.696;11.950;2022-08-24T05:19:38;102209.25;;;17.74;100.00
13015;BME280;6573;57.696;11.950;2022-08-24T05:22:07;102218.09;;;17.76;100.00
13015;BME280;6573;57.696;11.950;2022-08-24T05:24:35;102225.16;;;17.80;100.00
13015;BME280;6573;57.696;11.950;2022-08-24T05:27:03;102223.34;;;17.82;100.00
13015;BME280;6573;57.696;11.950;2022-08-24T05:29:31;102207.53;;;17.67;100.00
13015;BME280;6573;57.696;11.950;2022-08-24T05:32:02;102226.91;;;17.81;100.00
13015;BME280;6573;57.696;11.950;2022-08-24T05:34:30;102229.56;;;17.86;100.00
13015;BME280;6573;57.696;11.950;2022-08-24T05:36:59;102239.28;;;17.88;100.00
13015;BME280;6573;57.696;11.950;2022-08-24T05:39:27;102242.78;;;17.92;100.00
13015;BME280;6573;57.696;11.950;2022-08-24T05:41:56;102233.88;;;17.94;100.00
13015;BME280;6573;57.696;11.950;2022-08-24T05:44:26;102231.19;;;17.97;100.00
13015;BME280;6573;57.696;11.950;2022-08-24T05:46:57;102242.66;;;18.04;100.00
13015;BME280;6573;57.696;11.950;2022-08-24T05:49:27;102212.66;;;17.88;100.00
13015;BME280;6573;57.696;11.950;2022-08-24T05:51:56;102239.00;;;18.16;100.00
13015;BME280;6573;57.696;11.950;2022-08-24T05:54:25;102245.16;;;18.21;100.00
13015;BME280;6573;57.696;11.950;2022-08-24T05:56:53;102212.38;;;18.13;100.00
13015;BME280;6573;57.696;11.950;2022-08-24T05:59:23;102242.41;;;18.27;100.00
13015;BME280;6573;57.696;11.950;2022-08-24T06:01:51;102244.16;;;18.28;100.00
13015;BME280;6573;57.696;11.950;2022-08-24T06:04:19;102233.50;;;18.28;100.00
13015;BME280;6573;57.696;11.950;2022-08-24T06:06:51;102240.56;;;18.33;100.00
13015;BME280;6573;57.696;11.950;2022-08-24T06:09:20;102240.41;;;18.44;100.00
13015;BME280;6573;57.696;11.950;2022-08-24T06:11:48;102240.34;;;18.53;100.00
13015;BME280;6573;57.696;11.950;2022-08-24T06:14:17;102236.69;;;18.60;100.00
13015;BME280;6573;57.696;11.950;2022-08-24T06:16:52;102235.66;;;18.68;100.00
13015;BME280;6573;57.696;11.950;2022-08-24T06:19:21;102240.47;;;19.06;100.00
13015;BME280;6573;57.696;11.950;2022-08-24T06:21:52;102243.38;;;18.88;100.00
13015;BME280;6573;57.696;11.950;2022-08-24T06:24:21;102238.97;;;18.87;100.00
13015;BME280;6573;57.696;11.950;2022-08-24T06:27:11;102227.38;;;18.88;100.00
13015;BME280;6573;57.696;11.950;2022-08-24T06:29:48;102200.91;;;18.76;100.00
13015;BME280;6573;57.696;11.950;2022-08-24T06:32:17;102234.31;;;19.01;100.00
13015;BME280;6573;57.696;11.950;2022-08-24T06:34:45;102237.75;;;19.09;100.00
13015;BME280;6573;57.696;11.950;2022-08-24T06:37:15;102209.50;;;18.98;100.00
13015;BME280;6573;57.696;11.950;2022-08-24T06:39:45;102239.25;;;19.25;100.00
13015;BME280;6573;57.696;11.950;2022-08-24T06:42:21;102240.94;;;19.32;100.00
13015;BME280;6573;57.696;11.950;2022-08-24T06:44:50;102247.97;;;19.40;100.00
13015;BME280;6573;57.696;11.950;2022-08-24T06:47:20;102243.50;;;19.42;100.00
13015;BME280;6573;57.696;11.950;2022-08-24T06:49:48;102255.75;;;19.53;100.00
13015;BME280;6573;57.696;11.950;2022-08-24T06:52:18;102254.81;;;19.56;100.00
13015;BME280;6573;57.696;11.950;2022-08-24T06:54:46;102258.25;;;19.64;100.00
13015;BME280;6573;57.696;11.950;2022-08-24T06:57:14;102259.06;;;19.67;100.00
13015;BME280;6573;57.696;11.950;2022-08-24T06:59:43;102245.66;;;19.72;100.00
13015;BME280;6573;57.696;11.950;2022-08-24T07:02:11;102248.19;;;19.78;100.00
13015;BME280;6573;57.696;11.950;2022-08-24T07:04:41;102251.66;;;19.83;100.00
13015;BME280;6573;57.696;11.950;2022-08-24T07:07:10;102252.41;;;19.91;100.00
13015;BME280;6573;57.696;11.950;2022-08-24T07:09:39;102256.84;;;19.92;100.00
13015;BME280;6573;57.696;11.950;2022-08-24T07:12:08;102258.50;;;19.99;100.00
13015;BME280;6573;57.696;11.950;2022-08-24T07:14:36;102260.97;;;20.08;100.00
13015;BME280;6573;57.696;11.950;2022-08-24T07:17:04;102239.66;;;20.05;100.00
13015;BME280;6573;57.696;11.950;2022-08-24T07:19:32;102265.19;;;20.23;100.00
13015;BME280;6573;57.696;11.950;2022-08-24T07:22:00;102262.34;;;20.30;100.00
13015;BME280;6573;57.696;11.950;2022-08-24T07:24:28;102254.34;;;20.30;100.00
13015;BME280;6573;57.696;11.950;2022-08-24T07:26:58;102264.78;;;20.42;100.00
13015;BME280;6573;57.696;11.950;2022-08-24T07:29:26;102266.50;;;20.45;100.00
13015;BME280;6573;57.696;11.950;2022-08-24T07:32:14;102236.25;;;20.43;100.00
13015;BME280;6573;57.696;11.950;2022-08-24T07:34:42;102267.81;;;20.69;100.00
13015;BME280;6573;57.696;11.950;2022-08-24T07:37:10;102277.50;;;20.73;100.00
13015;BME280;6573;57.696;11.950;2022-08-24T07:39:39;102277.44;;;20.76;100.00
13015;BME280;6573;57.696;11.950;2022-08-24T07:42:08;102275.63;;;20.78;100.00
13015;BME280;6573;57.696;11.950;2022-08-24T07:44:44;102275.41;;;20.87;100.00
13015;BME280;6573;57.696;11.950;2022-08-24T07:47:12;102284.22;;;20.92;100.00
13015;BME280;6573;57.696;11.950;2022-08-24T07:50:01;102275.13;;;21.00;100.00
13015;BME280;6573;57.696;11.950;2022-08-24T07:52:29;102276.72;;;21.09;100.00
13015;BME280;6573;57.696;11.950;2022-08-24T07:54:57;102264.03;;;21.17;100.00
13015;BME280;6573;57.696;11.950;2022-08-24T07:57:27;102276.22;;;21.30;100.00
13015;BME280;6573;57.696;11.950;2022-08-24T07:59:57;102280.75;;;21.28;100.00
13015;BME280;6573;57.696;11.950;2022-08-24T08:02:26;102283.19;;;21.37;100.00
13015;BME280;6573;57.696;11.950;2022-08-24T08:05:02;102283.06;;;21.43;100.00
13015;BME280;6573;57.696;11.950;2022-08-24T08:07:31;102281.16;;;21.48;100.00
13015;BME280;6573;57.696;11.950;2022-08-24T08:09:59;102279.25;;;21.53;100.00
13015;BME280;6573;57.696;11.950;2022-08-24T08:12:29;102279.91;;;21.61;100.00
13015;BME280;6573;57.696;11.950;2022-08-24T08:14:57;102289.47;;;21.71;100.00
13015;BME280;6573;57.696;11.950;2022-08-24T08:17:26;102290.28;;;21.75;100.00
13015;BME280;6573;57.696;11.950;2022-08-24T08:19:54;102289.25;;;21.80;100.00
13015;BME280;6573;57.696;11.950;2022-08-24T08:22:22;102282.78;;;22.23;100.00
13015;BME280;6573;57.696;11.950;2022-08-24T08:25:08;102288.88;;;23.18;100.00
13015;BME280;6573;57.696;11.950;2022-08-24T08:27:38;102289.84;;;23.71;100.00
13015;BME280;6573;57.696;11.950;2022-08-24T08:30:07;102303.72;;;24.10;100.00
13015;BME280;6573;57.696;11.950;2022-08-24T08:32:35;102298.69;;;24.51;100.00
13015;BME280;6573;57.696;11.950;2022-08-24T08:35:04;102292.84;;;24.86;100.00
13015;BME280;6573;57.696;11.950;2022-08-24T08:37:33;102285.94;;;25.24;100.00
13015;BME280;6573;57.696;11.950;2022-08-24T08:40:09;102287.94;;;25.19;100.00
13015;BME280;6573;57.696;11.950;2022-08-24T08:42:58;102299.97;;;25.10;100.00
13015;BME280;6573;57.696;11.950;2022-08-24T08:45:32;102300.09;;;25.07;100.00
13015;BME280;6573;57.696;11.950;2022-08-24T08:48:23;102301.97;;;24.82;100.00
13015;BME280;6573;57.696;11.950;2022-08-24T08:51:29;102305.50;;;24.84;100.00
13015;BME280;6573;57.696;11.950;2022-08-24T08:54:32;102310.06;;;24.82;100.00
13015;BME280;6573;57.696;11.950;2022-08-24T09:00:14;102312.16;;;24.97;100.00
13015;BME280;6573;57.696;11.950;2022-08-24T09:03:04;102311.69;;;24.86;100.00
13015;BME280;6573;57.696;11.950;2022-08-24T09:05:56;102313.09;;;24.96;100.00
13015;BME280;6573;57.696;11.950;2022-08-24T09:08:35;102320.03;;;25.03;100.00
13015;BME280;6573;57.696;11.950;2022-08-24T09:11:13;102305.50;;;25.07;100.00
13015;BME280;6573;57.696;11.950;2022-08-24T09:13:58;102305.72;;;25.01;100.00
13015;BME280;6573;57.696;11.950;2022-08-24T09:16:42;102303.16;;;24.98;100.00
13015;BME280;6573;57.696;11.950;2022-08-24T09:19:27;102303.22;;;25.18;100.00
13015;BME280;6573;57.696;11.950;2022-08-24T09:22:11;102308.06;;;25.10;100.00
13015;BME280;6573;57.696;11.950;2022-08-24T09:24:59;102302.22;;;24.99;100.00
13015;BME280;6573;57.696;11.950;2022-08-24T09:27:39;102301.81;;;24.86;100.00
13015;BME280;6573;57.696;11.950;2022-08-24T09:30:13;102303.94;;;24.77;100.00
13015;BME280;6573;57.696;11.950;2022-08-24T09:33:05;102290.94;;;24.65;100.00
13015;BME280;6573;57.696;11.950;2022-08-24T09:36:03;102301.59;;;24.68;100.00
13015;BME280;6573;57.696;11.950;2022-08-24T09:38:55;102301.63;;;24.91;100.00
13015;BME280;6573;57.696;11.950;2022-08-24T09:41:54;102283.22;;;25.25;100.00
13015;BME280;6573;57.696;11.950;2022-08-24T09:47:53;102279.94;;;25.17;100.00
13015;BME280;6573;57.696;11.950;2022-08-24T09:56:59;102268.28;;;25.38;100.00
13015;BME280;6573;57.696;11.950;2022-08-24T09:59:57;102283.94;;;25.07;100.00
13015;BME280;6573;57.696;11.950;2022-08-24T10:02:55;102285.53;;;24.89;100.00
13015;BME280;6573;57.696;11.950;2022-08-24T10:05:30;102272.66;;;25.19;100.00
13015;BME280;6573;57.696;11.950;2022-08-24T10:08:15;102278.94;;;25.41;100.00
13015;BME280;6573;57.696;11.950;2022-08-24T10:10:50;102276.56;;;25.55;100.00
13015;BME280;6573;57.696;11.950;2022-08-24T10:13:26;102279.38;;;25.74;100.00
13015;BME280;6573;57.696;11.950;2022-08-24T10:16:11;102276.75;;;25.73;100.00
13015;BME280;6573;57.696;11.950;2022-08-24T10:18:53;102272.41;;;25.68;100.00
13015;BME280;6573;57.696;11.950;2022-08-24T10:21:35;102284.69;;;25.76;100.00
13015;BME280;6573;57.696;11.950;2022-08-24T10:24:26;102277.03;;;25.87;100.00
13015;BME280;6573;57.696;11.950;2022-08-24T10:27:19;102274.50;;;25.62;100.00
13015;BME280;6573;57.696;11.950;2022-08-24T10:33:07;102269.56;;;25.51;100.00
13015;BME280;6573;57.696;11.950;2022-08-24T10:35:39;102269.84;;;25.22;100.00
13015;BME280;6573;57.696;11.950;2022-08-24T10:38:23;102274.28;;;25.23;100.00
13015;BME280;6573;57.696;11.950;2022-08-24T10:41:42;102268.28;;;25.38;100.00
13015;BME280;6573;57.696;11.950;2022-08-24T10:44:36;102263.41;;;25.26;100.00
13015;BME280;6573;57.696;11.950;2022-08-24T10:47:16;102265.16;;;25.27;100.00
13015;BME280;6573;57.696;11.950;2022-08-24T10:50:20;102279.56;;;25.26;100.00
13015;BME280;6573;57.696;11.950;2022-08-24T10:53:18;102272.94;;;25.13;100.00
13015;BME280;6573;57.696;11.950;2022-08-24T10:55:55;102275.28;;;24.99;100.00
13015;BME280;6573;57.696;11.950;2022-08-24T11:01:28;102276.28;;;25.18;100.00
13015;BME280;6573;57.696;11.950;2022-08-24T11:04:01;102273.66;;;25.38;100.00
13015;BME280;6573;57.696;11.950;2022-08-24T11:06:32;102270.03;;;25.39;100.00
13015;BME280;6573;57.696;11.950;2022-08-24T11:09:05;102256.50;;;25.41;100.00
13015;BME280;6573;57.696;11.950;2022-08-24T11:11:35;102264.94;;;25.55;100.00
13015;BME280;6573;57.696;11.950;2022-08-24T11:14:08;102262.66;;;25.44;100.00
13015;BME280;6573;57.696;11.950;2022-08-24T11:16:41;102254.50;;;25.24;100.00
13015;BME280;6573;57.696;11.950;2022-08-24T11:19:13;102263.16;;;25.32;100.00
13015;BME280;6573;57.696;11.950;2022-08-24T11:21:48;102256.38;;;25.22;100.00
13015;BME280;6573;57.696;11.950;2022-08-24T11:24:27;102258.50;;;25.14;100.00
13015;BME280;6573;57.696;11.950;2022-08-24T11:26:59;102248.22;;;25.02;100.00
13015;BME280;6573;57.696;11.950;2022-08-24T11:29:53;102263.13;;;24.89;100.00
13015;BME280;6573;57.696;11.950;2022-08-24T11:32:28;102267.56;;;24.90;100.00
13015;BME280;6573;57.696;11.950;2022-08-24T11:35:01;102260.78;;;25.03;100.00
13015;BME280;6573;57.696;11.950;2022-08-24T11:37:31;102258.50;;;25.14;100.00
13015;BME280;6573;57.696;11.950;2022-08-24T11:40:00;102256.13;;;25.28;100.00
13015;BME280;6573;57.696;11.950;2022-08-24T11:42:53;102269.47;;;25.31;100.00
13015;BME280;6573;57.696;11.950;2022-08-24T11:45:34;102262.19;;;25.12;100.00
13015;BME280;6573;57.696;11.950;2022-08-24T11:48:14;102260.13;;;25.18;100.00
13015;BME280;6573;57.696;11.950;2022-08-24T11:50:47;102254.38;;;25.27;100.00
13015;BME280;6573;57.696;11.950;2022-08-24T11:53:29;102258.13;;;25.23;100.00
13015;BME280;6573;57.696;11.950;2022-08-24T11:56:08;102251.13;;;25.19;100.00
13015;BME280;6573;57.696;11.950;2022-08-24T11:58:50;102248.88;;;25.30;100.00
13015;BME280;6573;57.696;11.950;2022-08-24T12:01:24;102256.22;;;25.48;100.00
13015;BME280;6573;57.696;11.950;2022-08-24T12:04:06;102245.59;;;25.65;100.00
13015;BME280;6573;57.696;11.950;2022-08-24T12:06:45;102240.59;;;25.56;100.00
13015;BME280;6573;57.696;11.950;2022-08-24T12:09:38;102238.47;;;25.64;100.00
13015;BME280;6573;57.696;11.950;2022-08-24T12:12:13;102245.34;;;25.71;100.00
13015;BME280;6573;57.696;11.950;2022-08-24T12:14:49;102245.81;;;25.81;100.00
13015;BME280;6573;57.696;11.950;2022-08-24T12:17:31;102242.78;;;25.89;100.00
13015;BME280;6573;57.696;11.950;2022-08-24T12:20:08;102241.03;;;25.88;100.00
13015;BME280;6573;57.696;11.950;2022-08-24T12:22:52;102214.75;;;25.73;100.00
13015;BME280;6573;57.696;11.950;2022-08-24T12:25:25;102242.38;;;25.98;100.00
13015;BME280;6573;57.696;11.950;2022-08-24T12:28:19;102245.59;;;26.06;100.00
13015;BME280;6573;57.696;11.950;2022-08-24T12:30:49;102236.59;;;26.07;100.00
13015;BME280;6573;57.696;11.950;2022-08-24T12:33:24;102232.34;;;26.01;100.00
13015;BME280;6573;57.696;11.950;2022-08-24T12:36:00;102237.72;;;26.01;100.00
13015;BME280;6573;57.696;11.950;2022-08-24T12:38:34;102222.81;;;25.93;100.00
13015;BME280;6573;57.696;11.950;2022-08-24T12:41:11;102237.31;;;26.10;100.00
13015;BME280;6573;57.696;11.950;2022-08-24T12:43:46;102240.22;;;26.06;100.00
13015;BME280;6573;57.696;11.950;2022-08-24T12:46:19;102243.72;;;26.08;100.00
13015;BME280;6573;57.696;11.950;2022-08-24T12:48:54;102240.38;;;26.23;100.00
13015;BME280;6573;57.696;11.950;2022-08-24T12:51:28;102237.09;;;26.35;100.00
13015;BME280;6573;57.696;11.950;2022-08-24T12:54:11;102242.00;;;26.46;100.00
13015;BME280;6573;57.696;11.950;2022-08-24T12:57:02;102241.94;;;26.47;100.00
13015;BME280;6573;57.696;11.950;2022-08-24T12:59:37;102229.84;;;25.97;100.00
13015;BME280;6573;57.696;11.950;2022-08-24T13:02:25;102218.13;;;25.78;100.00
13015;BME280;6573;57.696;11.950;2022-08-24T13:04:57;102221.75;;;25.77;100.00
13015;BME280;6573;57.696;11.950;2022-08-24T13:07:31;102237.94;;;25.77;100.00
13015;BME280;6573;57.696;11.950;2022-08-24T13:10:15;102220.41;;;25.66;100.00
13015;BME280;6573;57.696;11.950;2022-08-24T13:13:20;102240.28;;;25.42;100.00
13015;BME280;6573;57.696;11.950;2022-08-24T13:15:59;102243.59;;;25.27;100.00
13015;BME280;6573;57.696;11.950;2022-08-24T13:18:51;102235.69;;;25.01;100.00
13015;BME280;6573;57.696;11.950;2022-08-24T13:21:39;102241.16;;;25.21;100.00
13015;BME280;6573;57.696;11.950;2022-08-24T13:27:59;102236.81;;;25.60;100.00
13015;BME280;6573;57.696;11.950;2022-08-24T13:30:37;102238.34;;;25.67;100.00
13015;BME280;6573;57.696;11.950;2022-08-24T13:33:26;102242.22;;;25.60;100.00
13015;BME280;6573;57.696;11.950;2022-08-24T13:36:08;102243.22;;;25.36;100.00
13015;BME280;6573;57.696;11.950;2022-08-24T13:39:16;102235.47;;;25.50;100.00